Time;durP1;ratioP1;P1;durP2;ratioP2;P2;SDS_P1;SDS_P2;PMS_P1;PMS_P2;Temp;Humidity;BMP_temperature;BMP_pressure;BME280_temperature;BME280_humidity;BME280_pressure;Samples;Min_cycle;Max_cycle;Signal;HPM_P1;HPM_P2
2022/05/13 00:01:33;;;;;;;11.60;10.63;;;17.80;99.90;;;;;;5034304;28;20436;-64
2022/05/13 00:03:59;;;;;;;10.60;9.77;;;17.90;99.90;;;;;;5035080;28;20648;-64
2022/05/13 00:06:24;;;;;;;13.13;11.47;;;17.80;99.90;;;;;;5038750;28;20439;-63
2022/05/13 00:08:50;;;;;;;11.27;10.23;;;17.80;99.90;;;;;;5037891;28;21659;-63
2022/05/13 00:11:16;;;;;;;10.40;9.60;;;17.80;99.90;;;;;;5038933;28;20192;-63
2022/05/13 00:13:42;;;;;;;10.97;9.87;;;17.80;99.90;;;;;;5039568;28;20441;-63
2022/05/13 00:16:08;;;;;;;11.20;10.30;;;17.80;99.90;;;;;;5032778;28;20177;-62
2022/05/13 00:18:34;;;;;;;10.07;9.37;;;17.90;99.90;;;;;;5034764;28;20265;-63
2022/05/13 00:21:00;;;;;;;10.33;9.63;;;17.80;99.90;;;;;;5034223;28;20476;-63
2022/05/13 00:23:25;;;;;;;12.03;11.03;;;17.80;99.90;;;;;;5028175;28;20182;-64
2022/05/13 00:25:51;;;;;;;9.70;8.90;;;17.80;99.90;;;;;;5040243;28;20182;-63
2022/05/13 00:28:16;;;;;;;10.47;9.47;;;17.90;99.90;;;;;;5032884;28;20198;-64
2022/05/13 00:30:48;;;;;;;11.10;10.00;;;17.90;99.90;;;;;;5036657;28;20205;-63
2022/05/13 00:33:14;;;;;;;11.67;10.07;;;17.90;99.90;;;;;;5037448;28;20185;-63
2022/05/13 00:35:40;;;;;;;12.53;11.43;;;17.90;99.90;;;;;;5042849;28;20514;-63
2022/05/13 00:38:06;;;;;;;12.30;11.00;;;17.90;99.90;;;;;;5032942;28;20571;-64
2022/05/13 00:40:32;;;;;;;11.40;10.30;;;17.90;99.90;;;;;;5035949;28;20679;-62
2022/05/13 00:43:04;;;;;;;12.13;11.13;;;18.00;99.90;;;;;;5033491;28;20850;-63
2022/05/13 00:45:31;;;;;;;12.10;10.80;;;17.90;99.90;;;;;;5037057;28;20437;-64
2022/05/13 00:47:57;;;;;;;10.87;9.90;;;17.90;99.90;;;;;;5032486;28;20527;-64
2022/05/13 00:50:24;;;;;;;11.77;10.60;;;17.90;99.90;;;;;;5039226;28;20444;-63
2022/05/13 00:52:51;;;;;;;11.33;10.50;;;18.00;99.90;;;;;;5033438;28;20663;-63
2022/05/13 00:55:26;;;;;;;11.30;10.40;;;18.00;99.90;;;;;;5030416;28;20452;-63
2022/05/13 00:57:52;;;;;;;11.33;10.33;;;18.00;99.90;;;;;;5036427;28;20464;-64
2022/05/13 01:00:18;;;;;;;10.00;9.20;;;18.00;99.90;;;;;;5038102;28;20544;-64
2022/05/13 01:02:45;;;;;;;11.23;10.43;;;17.90;99.90;;;;;;5037385;28;20185;-64
2022/05/13 01:05:13;;;;;;;11.20;10.30;;;18.30;99.90;;;;;;5032591;28;20565;-63
2022/05/13 01:07:40;;;;;;;10.10;9.40;;;18.20;99.90;;;;;;5036846;28;21174;-64
2022/05/13 01:10:11;;;;;;;11.07;10.07;;;18.20;99.90;;;;;;5037135;28;20441;-63
2022/05/13 01:12:42;;;;;;;11.50;10.50;;;18.20;99.90;;;;;;5039107;28;20958;-63
2022/05/13 01:15:09;;;;;;;10.13;9.30;;;18.20;99.90;;;;;;5025094;28;20459;-64
2022/05/13 01:20:25;;;;;;;10.97;9.70;;;18.20;99.90;;;;;;5032087;28;20443;-64
2022/05/13 01:22:53;;;;;;;12.23;11.17;;;17.90;99.90;;;;;;5034711;28;20930;-63
2022/05/13 01:25:24;;;;;;;13.70;11.17;;;18.20;99.90;;;;;;5037261;28;20436;-62
2022/05/13 01:27:50;;;;;;;11.07;10.17;;;18.20;99.90;;;;;;5033776;28;20444;-61
2022/05/13 01:30:20;;;;;;;12.50;11.30;;;18.20;99.90;;;;;;5037427;28;20441;-63
2022/05/13 01:32:45;;;;;;;13.23;12.10;;;18.30;99.90;;;;;;5031390;28;20209;-64
2022/05/13 01:35:11;;;;;;;12.47;11.20;;;18.10;99.90;;;;;;5033106;28;21035;-63
2022/05/13 01:37:36;;;;;;;13.63;12.23;;;18.10;99.90;;;;;;5038325;28;20244;-63
2022/05/13 01:40:03;;;;;;;13.07;11.87;;;17.90;99.90;;;;;;5023896;28;20185;-63
2022/05/13 01:42:30;;;;;;;12.53;11.23;;;17.90;99.90;;;;;;5036458;28;20205;-63
2022/05/13 01:44:56;;;;;;;13.37;12.27;;;17.80;99.90;;;;;;5033366;28;20808;-64
2022/05/13 01:47:22;;;;;;;14.17;12.67;;;17.80;99.90;;;;;;5036761;28;20470;-63
2022/05/13 01:49:47;;;;;;;13.70;12.50;;;17.80;99.90;;;;;;5034007;28;20272;-63
2022/05/13 01:52:13;;;;;;;13.60;12.40;;;17.70;99.90;;;;;;5038798;28;20441;-64
2022/05/13 01:54:39;;;;;;;15.60;14.00;;;17.70;99.90;;;;;;5033662;28;20189;-63
2022/05/13 01:57:05;;;;;;;12.67;11.37;;;17.70;99.90;;;;;;5047055;28;20248;-63
2022/05/13 01:59:30;;;;;;;16.70;13.93;;;17.60;99.90;;;;;;5034035;28;20202;-62
2022/05/13 02:01:56;;;;;;;14.53;13.13;;;17.50;99.90;;;;;;5038422;28;20436;-64
2022/05/13 02:04:22;;;;;;;16.00;14.37;;;17.40;99.90;;;;;;5038501;28;20616;-64
2022/05/13 02:06:48;;;;;;;15.87;14.37;;;17.30;99.90;;;;;;5033105;28;20456;-63
2022/05/13 02:09:13;;;;;;;15.80;14.40;;;17.10;99.90;;;;;;5036925;28;20258;-64
2022/05/13 02:11:39;;;;;;;15.73;14.43;;;17.00;99.90;;;;;;5034888;28;20186;-63
2022/05/13 02:14:06;;;;;;;16.73;15.17;;;17.00;99.90;;;;;;5038564;28;20604;-63
2022/05/13 02:16:32;;;;;;;17.93;14.67;;;17.00;99.90;;;;;;5043855;28;20436;-63
2022/05/13 02:18:58;;;;;;;15.47;13.97;;;17.00;99.90;;;;;;5038401;28;20474;-63
2022/05/13 02:21:25;;;;;;;16.67;14.93;;;17.00;99.90;;;;;;5033306;28;20260;-63
2022/05/13 02:23:52;;;;;;;15.57;14.17;;;17.00;99.90;;;;;;5040108;28;20432;-63
2022/05/13 02:26:17;;;;;;;14.30;11.97;;;16.90;99.90;;;;;;5036665;28;20487;-64
2022/05/13 02:28:44;;;;;;;13.37;11.93;;;16.80;99.90;;;;;;5037242;28;20452;-63
2022/05/13 02:31:12;;;;;;;10.53;9.63;;;16.80;99.90;;;;;;5043178;28;20189;-63
2022/05/13 02:33:38;;;;;;;12.67;11.57;;;16.80;99.90;;;;;;5032281;28;20515;-64
2022/05/13 02:36:05;;;;;;;13.67;10.60;;;16.80;99.90;;;;;;5032374;28;20448;-64
2022/05/13 02:38:31;;;;;;;12.43;11.33;;;16.80;99.90;;;;;;5036790;28;20475;-63
2022/05/13 02:41:12;;;;;;;12.17;11.00;;;16.80;99.90;;;;;;5041585;28;21085;-64
2022/05/13 02:43:43;;;;;;;12.57;11.37;;;16.80;99.90;;;;;;5044057;28;20432;-64
2022/05/13 02:46:09;;;;;;;13.20;11.90;;;16.70;99.90;;;;;;5037639;28;20436;-63
2022/05/13 02:48:35;;;;;;;12.43;11.20;;;16.70;99.90;;;;;;5035476;28;20460;-63
2022/05/13 02:51:01;;;;;;;11.83;10.87;;;16.60;99.90;;;;;;5039251;28;20442;-63
2022/05/13 02:53:26;;;;;;;12.07;10.97;;;16.60;99.90;;;;;;5039762;28;20433;-64
2022/05/13 02:55:52;;;;;;;13.20;11.97;;;16.60;99.90;;;;;;5038507;28;20178;-64
2022/05/13 02:58:18;;;;;;;12.90;11.70;;;16.70;99.90;;;;;;5041636;28;20210;-64
2022/05/13 03:00:44;;;;;;;12.97;11.70;;;16.60;99.90;;;;;;5038550;28;20174;-63
2022/05/13 03:03:10;;;;;;;12.97;11.77;;;16.60;99.90;;;;;;5037578;28;20178;-63
2022/05/13 03:05:35;;;;;;;12.60;11.30;;;16.60;99.90;;;;;;5038123;28;20437;-63
2022/05/13 03:08:01;;;;;;;15.03;12.13;;;16.70;99.90;;;;;;5035395;28;20630;-63
2022/05/13 03:10:32;;;;;;;13.77;12.33;;;16.70;99.90;;;;;;5034503;28;20232;-64
2022/05/13 03:12:58;;;;;;;12.10;10.70;;;16.70;99.90;;;;;;5036923;28;20188;-63
2022/05/13 03:15:25;;;;;;;12.03;10.93;;;16.70;99.90;;;;;;5043577;28;20445;-65
2022/05/13 03:17:51;;;;;;;12.97;11.63;;;16.80;99.90;;;;;;5036507;28;20513;-63
2022/05/13 03:20:18;;;;;;;11.90;10.80;;;16.70;99.90;;;;;;5042254;28;20460;-65
2022/05/13 03:22:44;;;;;;;12.93;11.70;;;16.70;99.90;;;;;;5033540;28;20178;-64
2022/05/13 03:25:10;;;;;;;12.63;11.43;;;16.80;99.90;;;;;;5044970;28;20432;-64
2022/05/13 03:27:36;;;;;;;11.73;10.80;;;16.70;99.90;;;;;;5034953;28;20874;-64
2022/05/13 03:30:04;;;;;;;11.63;10.43;;;16.70;99.90;;;;;;5044402;28;20504;-64
2022/05/13 03:32:29;;;;;;;10.97;9.83;;;16.70;99.90;;;;;;5038920;28;20432;-63
2022/05/13 03:34:55;;;;;;;13.03;11.90;;;16.70;99.90;;;;;;5044417;28;20441;-63
2022/05/13 03:37:21;;;;;;;12.73;11.33;;;16.70;99.90;;;;;;5039412;28;20280;-64
2022/05/13 03:39:46;;;;;;;10.83;9.93;;;16.70;99.90;;;;;;5035172;28;20491;-63
2022/05/13 03:42:12;;;;;;;12.83;11.73;;;16.60;99.90;;;;;;5036762;28;20637;-63
2022/05/13 03:44:37;;;;;;;11.17;10.20;;;16.60;99.90;;;;;;5038559;28;20245;-63
2022/05/13 03:47:04;;;;;;;10.80;9.80;;;16.40;99.90;;;;;;5035288;28;20178;-63
2022/05/13 03:49:30;;;;;;;10.80;9.87;;;16.50;99.90;;;;;;5035662;28;20206;-63
2022/05/13 03:51:55;;;;;;;11.50;10.33;;;16.50;99.90;;;;;;5036846;28;20521;-63
2022/05/13 03:54:21;;;;;;;9.97;8.83;;;16.50;99.90;;;;;;5036837;28;20190;-64
2022/05/13 03:56:47;;;;;;;10.53;8.50;;;16.50;99.90;;;;;;5032242;28;20551;-65
2022/05/13 03:59:12;;;;;;;9.53;8.73;;;16.50;99.90;;;;;;5030415;28;20225;-64
2022/05/13 04:01:38;;;;;;;9.70;8.90;;;16.50;99.90;;;;;;5036530;28;20185;-64
2022/05/13 04:04:04;;;;;;;9.80;8.73;;;16.50;99.90;;;;;;5037278;28;20232;-65
2022/05/13 04:09:14;;;;;;;14.60;9.27;;;16.60;99.90;;;;;;5035634;28;20570;-64
2022/05/13 04:11:41;;;;;;;10.13;9.20;;;16.60;99.90;;;;;;5035333;28;20964;-65
2022/05/13 04:16:54;;;;;;;11.63;10.53;;;16.70;99.90;;;;;;5037382;28;20455;-64
2022/05/13 04:19:19;;;;;;;12.43;9.80;;;16.70;99.90;;;;;;5032287;28;20464;-64
2022/05/13 04:21:46;;;;;;;9.93;9.03;;;16.70;99.90;;;;;;5030752;28;20547;-65
2022/05/13 04:24:19;;;;;;;11.17;9.33;;;16.70;99.90;;;;;;5038526;28;20560;-64
2022/05/13 04:26:45;;;;;;;12.53;11.07;;;16.80;99.90;;;;;;5039242;28;20438;-65
2022/05/13 04:29:11;;;;;;;12.60;10.93;;;16.70;99.90;;;;;;5032332;28;20472;-65
2022/05/13 04:31:41;;;;;;;11.23;10.13;;;16.70;99.90;;;;;;5032689;28;20445;-64
2022/05/13 04:34:08;;;;;;;15.40;11.20;;;16.70;99.90;;;;;;5030015;28;20188;-64
2022/05/13 04:36:34;;;;;;;9.53;8.80;;;16.70;99.90;;;;;;5034779;28;20978;-65
2022/05/13 04:38:59;;;;;;;13.17;9.00;;;16.70;99.90;;;;;;5032274;28;20575;-65
2022/05/13 04:44:12;;;;;;;13.90;12.60;;;16.70;99.90;;;;;;5037729;28;20192;-63
2022/05/13 04:46:38;;;;;;;10.50;9.50;;;16.70;99.90;;;;;;5034982;28;20432;-63
2022/05/13 04:49:04;;;;;;;11.00;10.00;;;16.80;99.90;;;;;;5040501;28;20863;-65
2022/05/13 04:51:30;;;;;;;10.63;9.00;;;16.90;99.90;;;;;;5031268;28;20860;-64
2022/05/13 04:53:56;;;;;;;13.40;8.30;;;16.90;99.90;;;;;;5037436;28;20433;-65
2022/05/13 04:56:23;;;;;;;8.87;8.00;;;17.00;99.90;;;;;;5036406;28;20231;-65
2022/05/13 04:58:49;;;;;;;14.17;11.53;;;17.00;99.90;;;;;;5029275;28;20902;-64
2022/05/13 05:01:16;;;;;;;9.73;8.90;;;17.00;99.90;;;;;;5026695;28;20452;-65
2022/05/13 05:03:43;;;;;;;11.07;8.67;;;17.10;99.90;;;;;;5032172;28;20540;-65
2022/05/13 05:06:09;;;;;;;11.20;10.20;;;17.00;99.90;;;;;;5032505;28;20437;-65
2022/05/13 05:08:36;;;;;;;10.17;9.20;;;17.00;99.90;;;;;;5038319;28;20459;-65
2022/05/13 05:11:02;;;;;;;12.10;9.57;;;17.20;99.90;;;;;;5033597;28;20447;-61
2022/05/13 05:13:34;;;;;;;9.10;8.20;;;17.20;99.90;;;;;;5030333;28;20448;-64
2022/05/13 05:16:01;;;;;;;9.53;7.10;;;17.20;99.90;;;;;;5035919;28;20499;-65
2022/05/13 05:18:26;;;;;;;11.23;9.50;;;17.20;99.90;;;;;;5041196;28;20840;-64
2022/05/13 05:20:52;;;;;;;11.37;9.90;;;17.20;99.90;;;;;;5039612;28;20437;-65
2022/05/13 05:23:20;;;;;;;9.20;8.50;;;17.10;99.90;;;;;;5042938;28;20597;-65
2022/05/13 05:25:47;;;;;;;11.20;10.20;;;17.10;99.90;;;;;;5041349;28;20432;-64
2022/05/13 05:28:13;;;;;;;10.10;9.10;;;17.10;99.90;;;;;;5033937;28;20497;-62
2022/05/13 05:30:39;;;;;;;10.00;9.00;;;17.20;99.90;;;;;;5034575;28;20447;-65
2022/05/13 05:33:06;;;;;;;10.93;9.83;;;17.10;99.90;;;;;;5042409;28;20473;-65
2022/05/13 05:35:31;;;;;;;10.13;9.13;;;17.20;99.90;;;;;;5042761;28;20857;-65
2022/05/13 05:37:57;;;;;;;12.47;9.60;;;17.30;99.90;;;;;;5036697;28;20472;-63
2022/05/13 05:40:23;;;;;;;12.37;10.93;;;17.30;99.90;;;;;;5039361;28;20178;-65
2022/05/13 05:42:48;;;;;;;11.53;10.53;;;17.40;99.90;;;;;;5036432;28;20178;-65
2022/05/13 05:45:16;;;;;;;11.70;10.50;;;17.40;99.90;;;;;;5042440;28;20173;-65
2022/05/13 05:47:42;;;;;;;11.00;10.00;;;17.60;99.90;;;;;;5032716;28;20627;-65
2022/05/13 05:50:12;;;;;;;9.13;8.33;;;17.70;99.90;;;;;;5032626;28;20455;-65
2022/05/13 05:52:38;;;;;;;9.23;6.90;;;17.80;99.90;;;;;;5040899;28;20632;-65
2022/05/13 05:57:59;;;;;;;8.60;7.70;;;17.90;99.90;;;;;;5034596;28;20746;-65
2022/05/13 06:00:25;;;;;;;7.33;6.60;;;17.70;99.90;;;;;;5038048;28;20429;-65
2022/05/13 06:02:51;;;;;;;7.73;7.00;;;17.40;99.90;;;;;;5043968;28;20432;-65
2022/05/13 06:05:17;;;;;;;9.13;7.57;;;17.40;99.90;;;;;;5047504;28;20442;-64
2022/05/13 06:07:42;;;;;;;8.63;7.83;;;17.40;99.90;;;;;;5034109;28;20587;-63
2022/05/13 06:10:08;;;;;;;6.93;6.10;;;17.60;99.90;;;;;;5039900;28;20181;-65
2022/05/13 06:12:34;;;;;;;9.43;7.50;;;17.60;99.90;;;;;;5036151;28;20227;-65
2022/05/13 06:14:59;;;;;;;7.37;6.73;;;17.40;99.90;;;;;;5032953;28;20846;-64
2022/05/13 06:17:25;;;;;;;12.40;9.03;;;17.40;99.90;;;;;;5034871;28;20178;-65
2022/05/13 06:19:50;;;;;;;11.57;7.23;;;17.40;99.90;;;;;;5031485;28;20201;-65
2022/05/13 06:22:16;;;;;;;8.67;7.17;;;17.30;99.90;;;;;;5035775;28;20169;-65
2022/05/13 06:24:42;;;;;;;6.50;6.00;;;17.40;99.90;;;;;;5025997;28;20171;-62
2022/05/13 06:27:09;;;;;;;7.77;7.00;;;17.50;99.90;;;;;;5028496;28;20857;-65
2022/05/13 06:29:36;;;;;;;9.33;6.20;;;17.70;99.90;;;;;;5035618;28;20659;-66
2022/05/13 06:32:02;;;;;;;6.80;6.20;;;17.90;99.90;;;;;;5027306;28;22141;-66
2022/05/13 06:34:28;;;;;;;6.23;5.73;;;18.10;99.90;;;;;;5026486;28;20811;-65
2022/05/13 06:36:54;;;;;;;9.37;6.23;;;18.10;99.90;;;;;;4994636;28;20653;-66
2022/05/13 06:39:19;;;;;;;9.10;5.83;;;18.40;99.90;;;;;;5007307;28;20221;-67
2022/05/13 06:41:46;;;;;;;7.77;6.97;;;18.40;99.90;;;;;;5026258;28;20189;-66
2022/05/13 06:44:13;;;;;;;9.37;6.30;;;18.50;99.90;;;;;;5028497;28;20182;-67
2022/05/13 06:46:39;;;;;;;7.30;6.30;;;18.70;99.90;;;;;;5020854;28;20480;-67
2022/05/13 06:49:06;;;;;;;27.77;24.57;;;18.80;99.90;;;;;;5029416;28;20548;-67
2022/05/13 06:51:33;;;;;;;11.83;8.93;;;18.70;99.90;;;;;;5031908;28;20193;-65
2022/05/13 06:54:07;;;;;;;10.00;6.07;;;18.70;99.90;;;;;;5023131;28;20807;-66
2022/05/13 06:56:36;;;;;;;10.43;6.20;;;18.90;99.90;;;;;;5023040;28;20441;-67
2022/05/13 06:59:02;;;;;;;8.87;6.33;;;18.90;99.90;;;;;;5028326;28;20475;-65
2022/05/13 07:01:28;;;;;;;8.90;5.93;;;18.90;99.90;;;;;;5032802;28;20435;-70
2022/05/13 07:03:54;;;;;;;6.20;4.80;;;18.80;99.90;;;;;;5030128;28;20506;-68
2022/05/13 07:06:20;;;;;;;10.27;6.70;;;19.00;99.90;;;;;;5024672;28;20185;-70
2022/05/13 07:08:46;;;;;;;9.60;5.67;;;18.90;99.90;;;;;;5027494;28;20204;-67
2022/05/13 07:11:12;;;;;;;7.07;6.10;;;18.80;99.90;;;;;;5025697;28;20455;-67
2022/05/13 07:13:38;;;;;;;6.70;6.07;;;18.70;99.90;;;;;;5034682;28;20443;-68
2022/05/13 07:16:04;;;;;;;7.60;6.20;;;18.40;99.90;;;;;;5031314;28;20264;-69
2022/05/13 07:18:30;;;;;;;8.20;6.07;;;18.30;99.90;;;;;;5034856;28;20205;-71
2022/05/13 07:20:55;;;;;;;8.43;5.70;;;18.20;99.90;;;;;;5035099;28;20510;-69
2022/05/13 07:23:21;;;;;;;7.03;5.30;;;18.30;99.90;;;;;;5026603;28;20668;-69
2022/05/13 07:25:46;;;;;;;9.10;5.73;;;18.10;99.90;;;;;;5025207;28;20190;-69
2022/05/13 07:28:12;;;;;;;15.80;14.20;;;18.20;99.90;;;;;;5029859;28;20233;-69
2022/05/13 07:30:38;;;;;;;11.27;9.00;;;18.20;99.90;;;;;;5032821;28;20480;-69
2022/05/13 07:33:04;;;;;;;11.73;7.30;;;18.10;99.90;;;;;;5029733;28;20178;-69
2022/05/13 07:35:30;;;;;;;7.53;6.53;;;18.10;99.90;;;;;;5027643;28;20280;-70
2022/05/13 07:37:55;;;;;;;6.90;5.90;;;18.10;99.90;;;;;;5030686;28;20534;-69
2022/05/13 07:43:05;;;;;;;5.73;5.23;;;18.30;99.90;;;;;;5031812;28;20255;-69
2022/05/13 07:45:32;;;;;;;10.50;6.80;;;18.30;99.90;;;;;;5026957;28;20937;-69
2022/05/13 07:47:57;;;;;;;7.30;5.60;;;18.30;99.90;;;;;;5030407;28;20198;-70
2022/05/13 07:50:23;;;;;;;11.30;6.03;;;18.40;99.90;;;;;;5030902;28;20437;-68
2022/05/13 07:52:51;;;;;;;7.43;5.53;;;18.50;99.90;;;;;;5030497;28;20186;-70
2022/05/13 07:55:18;;;;;;;8.20;5.23;;;18.40;99.90;;;;;;5031542;28;20436;-70
2022/05/13 07:57:46;;;;;;;10.47;5.63;;;18.40;99.90;;;;;;5028628;28;20437;-69
2022/05/13 08:00:26;;;;;;;9.27;5.10;;;18.30;99.90;;;;;;5029582;28;20462;-69
2022/05/13 08:02:53;;;;;;;8.70;4.70;;;18.40;99.90;;;;;;5033110;28;20965;-69
2022/05/13 08:05:18;;;;;;;4.73;4.40;;;18.50;99.90;;;;;;5032400;28;20439;-69
2022/05/13 08:07:44;;;;;;;6.20;4.67;;;18.60;99.90;;;;;;5029241;28;20523;-70
2022/05/13 08:10:10;;;;;;;14.60;5.60;;;18.90;99.90;;;;;;5037107;28;20240;-67
2022/05/13 08:12:35;;;;;;;9.60;4.73;;;19.40;99.90;;;;;;5028133;28;20174;-70
2022/05/13 08:15:01;;;;;;;11.20;5.30;;;19.80;99.90;;;;;;5032441;28;20428;-68
2022/05/13 08:17:26;;;;;;;13.27;5.27;;;20.10;99.90;;;;;;5030559;28;20549;-67
2022/05/13 08:19:52;;;;;;;9.67;4.63;;;20.10;99.90;;;;;;5029035;28;20198;-67
2022/05/13 08:22:17;;;;;;;6.40;4.57;;;20.20;99.90;;;;;;5035362;28;20185;-67
2022/05/13 08:24:43;;;;;;;6.30;4.33;;;20.10;99.90;;;;;;5030036;28;20166;-67
2022/05/13 08:27:08;;;;;;;5.87;4.20;;;20.20;99.90;;;;;;5028857;28;22106;-70
2022/05/13 08:29:34;;;;;;;8.30;4.50;;;20.50;99.90;;;;;;5033345;28;20255;-67
2022/05/13 08:31:59;;;;;;;11.40;4.20;;;20.40;99.90;;;;;;5031911;28;20186;-67
2022/05/13 08:34:25;;;;;;;8.93;4.87;;;20.30;99.90;;;;;;5031162;28;20224;-67
2022/05/13 08:36:50;;;;;;;9.80;4.70;;;20.30;99.90;;;;;;5021367;28;20778;-67
2022/05/13 08:39:16;;;;;;;8.33;4.57;;;20.40;99.90;;;;;;5024890;28;20214;-68
2022/05/13 08:42:09;;;;;;;6.23;4.10;;;20.40;99.90;;;;;;5032646;28;20247;-68
2022/05/13 08:44:36;;;;;;;4.97;3.50;;;20.40;99.90;;;;;;5026802;28;20189;-68
2022/05/13 08:47:15;;;;;;;6.53;3.90;;;20.50;99.90;;;;;;5027274;28;20452;-68
2022/05/13 08:49:47;;;;;;;8.87;4.07;;;20.70;99.90;;;;;;5024054;28;20834;-68
2022/05/13 08:55:07;;;;;;;8.40;3.70;;;20.80;99.90;;;;;;5027821;28;20506;-68
2022/05/13 08:57:40;;;;;;;6.50;3.80;;;20.90;99.90;;;;;;5026576;28;20472;-68
2022/05/13 09:00:33;;;;;;;6.93;3.60;;;21.50;99.90;;;;;;5026458;28;20444;-68
2022/05/13 09:03:18;;;;;;;4.97;3.93;;;21.80;99.90;;;;;;5019093;28;20965;-68
2022/05/13 09:05:53;;;;;;;8.30;3.80;;;22.30;99.90;;;;;;5024664;28;20480;-68
2022/05/13 09:08:20;;;;;;;3.93;3.40;;;22.50;99.90;;;;;;5030315;28;20455;-68
2022/05/13 09:10:58;;;;;;;9.40;3.50;;;22.80;99.90;;;;;;5019555;28;20441;-69
2022/05/13 09:13:38;;;;;;;8.67;4.10;;;23.00;99.90;;;;;;5024719;28;20460;-69
2022/05/13 09:16:08;;;;;;;9.13;4.63;;;23.40;99.90;;;;;;5026779;28;20482;-69
2022/05/13 09:18:50;;;;;;;8.53;3.47;;;23.70;99.90;;;;;;5026899;28;20465;-68
2022/05/13 09:21:19;;;;;;;5.47;3.03;;;23.50;99.90;;;;;;5025994;28;21087;-68
2022/05/13 09:23:46;;;;;;;6.80;3.13;;;23.20;99.90;;;;;;5021808;28;20472;-68
2022/05/13 09:26:22;;;;;;;5.73;3.80;;;22.60;99.90;;;;;;5029662;28;20542;-68
2022/05/13 09:29:00;;;;;;;6.50;4.63;;;22.20;99.90;;;;;;5026424;28;20522;-68
2022/05/13 09:31:28;;;;;;;6.00;3.40;;;22.20;99.90;;;;;;5029824;28;20447;-68
2022/05/13 09:33:54;;;;;;;4.80;4.33;;;21.80;99.90;;;;;;5026783;28;20431;-68
2022/05/13 09:36:22;;;;;;;6.43;4.67;;;21.60;99.90;;;;;;5024657;28;20884;-66
2022/05/13 09:38:50;;;;;;;6.20;3.43;;;21.50;99.90;;;;;;5023258;28;20217;-65
2022/05/13 09:41:34;;;;;;;4.57;2.93;;;21.70;99.90;;;;;;5027799;28;20451;-65
2022/05/13 09:44:19;;;;;;;5.67;3.33;;;21.70;99.90;;;;;;5026072;28;20441;-65
2022/05/13 09:47:05;;;;;;;9.03;4.50;;;21.70;99.90;;;;;;5036504;28;20478;-65
2022/05/13 09:49:36;;;;;;;4.43;3.97;;;21.30;99.90;;;;;;5024084;28;20456;-66
2022/05/13 09:52:09;;;;;;;7.60;5.10;;;21.00;99.90;;;;;;5031240;28;20531;-65
2022/05/13 09:54:37;;;;;;;5.53;3.60;;;21.10;99.90;;;;;;5032622;28;20798;-65
2022/05/13 09:57:06;;;;;;;7.63;3.50;;;21.00;99.90;;;;;;5030132;28;20938;-65
2022/05/13 09:59:39;;;;;;;6.60;3.80;;;20.80;99.90;;;;;;5030072;28;20570;-65
2022/05/13 10:02:24;;;;;;;9.03;3.50;;;20.70;99.90;;;;;;5031641;28;20444;-65
2022/05/13 10:05:09;;;;;;;7.23;4.67;;;20.50;99.90;;;;;;5034225;28;20969;-69
2022/05/13 10:07:41;;;;;;;10.17;3.87;;;20.50;99.90;;;;;;5030862;28;20479;-69
2022/05/13 10:15:37;;;;;;;4.63;3.53;;;20.40;99.90;;;;;;5032476;28;21007;-65
2022/05/13 10:18:30;;;;;;;6.60;3.03;;;20.60;99.90;;;;;;5031199;28;20460;-66
2022/05/13 10:21:05;;;;;;;4.27;3.20;;;20.20;99.90;;;;;;5031580;28;20413;-66
2022/05/13 10:23:36;;;;;;;7.53;3.50;;;20.20;99.90;;;;;;5031525;28;20408;-66
2022/05/13 10:26:07;;;;;;;7.87;5.93;;;20.60;99.90;;;;;;5031682;28;20424;-65
2022/05/13 10:28:38;;;;;;;5.50;3.53;;;20.90;99.90;;;;;;5030770;28;20458;-65
2022/05/13 10:31:16;;;;;;;6.57;4.20;;;20.80;99.90;;;;;;5032421;28;20423;-66
2022/05/13 10:33:54;;;;;;;5.40;4.23;;;20.90;99.90;;;;;;5035281;28;21063;-66
2022/05/13 10:36:42;;;;;;;4.10;3.43;;;21.10;99.90;;;;;;5035060;28;20444;-66
2022/05/13 10:39:19;;;;;;;5.40;3.63;;;21.70;99.90;;;;;;5034765;28;20962;-67
2022/05/13 10:42:09;;;;;;;3.97;3.67;;;22.00;99.90;;;;;;5035440;28;20416;-66
2022/05/13 10:44:54;;;;;;;7.90;2.90;;;22.30;99.90;;;;;;5035066;28;20790;-66
2022/05/13 10:47:27;;;;;;;7.87;3.40;;;21.90;99.90;;;;;;5040248;28;20416;-67
2022/05/13 10:49:53;;;;;;;10.13;3.77;;;21.40;99.90;;;;;;5054501;28;20439;-66
2022/05/13 10:52:34;;;;;;;5.77;3.70;;;21.10;99.90;;;;;;5055001;28;20422;-67
2022/05/13 10:55:14;;;;;;;5.13;4.70;;;21.20;99.90;;;;;;5054617;28;20173;-66
2022/05/13 10:58:03;;;;;;;4.83;4.30;;;21.20;99.90;;;;;;5027957;28;20519;-66
2022/05/13 11:00:48;;;;;;;5.60;3.67;;;21.50;99.90;;;;;;5031526;28;20436;-66
2022/05/13 11:03:24;;;;;;;5.60;4.07;;;21.40;99.90;;;;;;5031948;28;20424;-66
2022/05/13 11:06:01;;;;;;;4.10;3.80;;;21.30;99.90;;;;;;5031318;28;20918;-66
2022/05/13 11:08:40;;;;;;;7.00;4.13;;;21.40;99.90;;;;;;5031262;28;20432;-66
2022/05/13 11:11:13;;;;;;;7.63;4.40;;;21.60;99.90;;;;;;5031758;28;20780;-66
2022/05/13 11:14:03;;;;;;;4.97;4.27;;;21.90;99.90;;;;;;5034227;28;20490;-66
2022/05/13 11:16:38;;;;;;;6.63;3.90;;;22.10;99.90;;;;;;5031118;28;20424;-66
2022/05/13 11:19:26;;;;;;;5.57;3.97;;;22.00;99.90;;;;;;5030979;28;20533;-66
2022/05/13 11:22:03;;;;;;;3.93;3.43;;;21.80;99.90;;;;;;5031148;28;20492;-66
2022/05/13 11:28:06;;;;;;;7.57;4.47;;;22.80;99.90;;;;;;5031128;28;20467;-67
2022/05/13 11:30:56;;;;;;;4.80;4.30;;;24.70;99.90;;;;;;5031313;28;20460;-67
2022/05/13 11:33:42;;;;;;;8.30;4.77;;;24.40;99.90;;;;;;5031447;28;20989;-66
2022/05/13 11:36:29;;;;;;;4.23;3.83;;;25.40;99.90;;;;;;5030678;28;20436;-67
2022/05/13 11:39:13;;;;;;;4.33;3.93;;;26.20;97.90;;;;;;5030628;28;20783;-67
2022/05/13 11:42:00;;;;;;;4.00;3.50;;;26.00;98.70;;;;;;5030809;28;20982;-67
2022/05/13 11:44:37;;;;;;;5.03;4.60;;;26.20;97.00;;;;;;5029920;28;20416;-67
2022/05/13 11:47:24;;;;;;;5.77;4.87;;;25.00;97.80;;;;;;5030870;28;20926;-67
2022/05/13 11:49:51;;;;;;;8.07;7.00;;;24.60;98.60;;;;;;5030422;28;20452;-67
2022/05/13 11:52:16;;;;;;;5.73;4.23;;;25.10;98.60;;;;;;5030446;28;20433;-66
2022/05/13 11:54:43;;;;;;;10.10;3.60;;;25.30;98.60;;;;;;5030820;28;20436;-67
2022/05/13 11:57:40;;;;;;;7.17;3.67;;;25.40;97.80;;;;;;5030964;28;20585;-67
2022/05/13 12:00:35;;;;;;;4.70;4.40;;;25.30;98.20;;;;;;5028240;28;20456;-67
2022/05/13 12:03:10;;;;;;;4.80;4.03;;;25.00;97.90;;;;;;5024329;28;20444;-67
2022/05/13 12:06:06;;;;;;;4.03;3.73;;;25.10;99.40;;;;;;5029424;28;20440;-67
2022/05/13 12:08:44;;;;;;;6.60;4.50;;;25.50;98.00;;;;;;5027671;28;20464;-67
2022/05/13 12:11:17;;;;;;;5.10;3.87;;;26.50;96.30;;;;;;5019767;28;20498;-64
2022/05/13 12:14:21;;;;;;;5.67;4.10;;;29.10;90.90;;;;;;5031779;28;20777;-64
2022/05/13 12:16:56;;;;;;;4.40;3.47;;;29.40;89.00;;;;;;5022968;28;20451;-64
2022/05/13 12:19:42;;;;;;;4.40;3.53;;;29.20;87.70;;;;;;5033312;28;20463;-64
2022/05/13 12:22:19;;;;;;;4.20;3.80;;;29.80;82.80;;;;;;5028025;28;20441;-65
2022/05/13 12:25:01;;;;;;;4.50;4.00;;;30.00;82.80;;;;;;5028968;28;20476;-64
2022/05/13 12:28:01;;;;;;;6.67;3.90;;;29.80;80.70;;;;;;5028930;28;20858;-64
2022/05/13 12:30:34;;;;;;;4.27;3.83;;;29.00;81.00;;;;;;5024289;28;20940;-67
2022/05/13 12:33:23;;;;;;;4.50;4.10;;;27.30;84.20;;;;;;5028855;28;20468;-67
2022/05/13 12:39:10;;;;;;;8.63;3.97;;;30.00;79.30;;;;;;5025751;28;20801;-67
2022/05/13 12:41:44;;;;;;;5.23;4.73;;;28.80;79.20;;;;;;5026525;28;20441;-68
2022/05/13 12:44:15;;;;;;;3.67;3.27;;;27.80;81.40;;;;;;5027006;28;20874;-68
2022/05/13 12:46:47;;;;;;;9.23;3.50;;;29.70;79.40;;;;;;5030271;28;20516;-66
2022/05/13 12:49:25;;;;;;;4.10;3.67;;;31.20;73.00;;;;;;5020068;28;20898;-65
2022/05/13 12:52:08;;;;;;;4.10;3.57;;;30.00;73.20;;;;;;5029038;28;20436;-66
2022/05/13 12:54:42;;;;;;;8.23;3.60;;;30.60;71.10;;;;;;5027331;28;20447;-65
2022/05/13 12:57:13;;;;;;;5.90;3.40;;;32.20;69.90;;;;;;5028011;28;20437;-66
2022/05/13 12:59:42;;;;;;;5.27;3.80;;;34.70;64.70;;;;;;5028537;28;20473;-66
2022/05/13 13:02:10;;;;;;;6.83;4.43;;;33.50;59.90;;;;;;5029448;28;20464;-66
2022/05/13 13:04:46;;;;;;;4.93;4.43;;;31.80;61.30;;;;;;5031901;28;20437;-66
2022/05/13 13:07:20;;;;;;;3.50;3.20;;;31.80;62.70;;;;;;5027204;28;20529;-66
2022/05/13 13:09:48;;;;;;;5.60;3.97;;;32.70;59.90;;;;;;5025010;28;20465;-66
2022/05/13 13:12:21;;;;;;;4.10;3.70;;;33.80;57.70;;;;;;5034496;28;20456;-66
2022/05/13 13:15:01;;;;;;;3.90;3.20;;;35.00;54.60;;;;;;5026686;28;20528;-65
2022/05/13 13:17:53;;;;;;;4.07;3.53;;;34.70;53.00;;;;;;5025002;28;20443;-66
2022/05/13 13:20:20;;;;;;;8.43;3.53;;;32.70;52.90;;;;;;5025781;28;20451;-65
2022/05/13 13:22:52;;;;;;;4.47;3.67;;;31.10;55.60;;;;;;5040179;28;20432;-66
2022/05/13 13:25:27;;;;;;;6.37;3.40;;;31.50;54.40;;;;;;5027296;28;20444;-65